sensor_id;sensor_type;location;lat;lon;timestamp;P1;durP1;ratioP1;P2;durP2;ratioP2
66970;SDS011;53901;51.466;-2.588;2023-11-18T00:00:45;5.38;;;1.30;;
66970;SDS011;53901;51.466;-2.588;2023-11-18T00:03:11;2.47;;;1.17;;
66970;SDS011;53901;51.466;-2.588;2023-11-18T00:05:36;6.78;;;1.35;;
66970;SDS011;53901;51.466;-2.588;2023-11-18T00:08:02;8.15;;;1.48;;
66970;SDS011;53901;51.466;-2.588;2023-11-18T00:10:30;1.90;;;1.20;;
66970;SDS011;53901;51.466;-2.588;2023-11-18T00:12:55;7.43;;;1.70;;
66970;SDS011;53901;51.466;-2.588;2023-11-18T00:15:21;5.00;;;1.30;;
66970;SDS011;53901;51.466;-2.588;2023-11-18T00:17:46;4.00;;;1.33;;
66970;SDS011;53901;51.466;-2.588;2023-11-18T00:20:11;2.90;;;1.33;;
66970;SDS011;53901;51.466;-2.588;2023-11-18T00:22:39;4.85;;;1.60;;
66970;SDS011;53901;51.466;-2.588;2023-11-18T00:25:06;4.45;;;1.60;;
66970;SDS011;53901;51.466;-2.588;2023-11-18T00:27:39;3.05;;;1.35;;
66970;SDS011;53901;51.466;-2.588;2023-11-18T00:30:05;2.92;;;1.20;;
66970;SDS011;53901;51.466;-2.588;2023-11-18T00:32:33;1.95;;;1.10;;
66970;SDS011;53901;51.466;-2.588;2023-11-18T00:35:00;2.47;;;1.27;;
66970;SDS011;53901;51.466;-2.588;2023-11-18T00:37:25;5.13;;;1.40;;
66970;SDS011;53901;51.466;-2.588;2023-11-18T00:39:52;2.58;;;1.40;;
66970;SDS011;53901;51.466;-2.588;2023-11-18T00:42:17;3.20;;;1.15;;
66970;SDS011;53901;51.466;-2.588;2023-11-18T00:44:43;2.67;;;1.50;;
66970;SDS011;53901;51.466;-2.588;2023-11-18T00:47:08;3.00;;;1.23;;
66970;SDS011;53901;51.466;-2.588;2023-11-18T00:49:34;2.35;;;1.20;;
66970;SDS011;53901;51.466;-2.588;2023-11-18T00:51:59;3.85;;;1.38;;
66970;SDS011;53901;51.466;-2.588;2023-11-18T00:54:25;3.03;;;1.15;;
66970;SDS011;53901;51.466;-2.588;2023-11-18T00:56:50;4.15;;;0.93;;
66970;SDS011;53901;51.466;-2.588;2023-11-18T00:59:15;1.98;;;1.10;;
66970;SDS011;53901;51.466;-2.588;2023-11-18T01:01:41;3.38;;;0.95;;
66970;SDS011;53901;51.466;-2.588;2023-11-18T01:04:07;5.65;;;1.02;;
66970;SDS011;53901;51.466;-2.588;2023-11-18T01:06:32;1.42;;;0.70;;
66970;SDS011;53901;51.466;-2.588;2023-11-18T01:08:58;3.60;;;0.68;;
66970;SDS011;53901;51.466;-2.588;2023-11-18T01:11:24;3.40;;;0.88;;
66970;SDS011;53901;51.466;-2.588;2023-11-18T01:13:49;3.72;;;0.90;;
66970;SDS011;53901;51.466;-2.588;2023-11-18T01:16:15;2.47;;;0.77;;
66970;SDS011;53901;51.466;-2.588;2023-11-18T01:18:41;2.20;;;0.63;;
66970;SDS011;53901;51.466;-2.588;2023-11-18T01:21:07;2.05;;;0.77;;
66970;SDS011;53901;51.466;-2.588;2023-11-18T01:23:36;4.30;;;0.80;;
66970;SDS011;53901;51.466;-2.588;2023-11-18T01:26:05;4.50;;;0.80;;
66970;SDS011;53901;51.466;-2.588;2023-11-18T01:28:31;1.65;;;0.50;;
66970;SDS011;53901;51.466;-2.588;2023-11-18T01:31:01;1.63;;;0.60;;
66970;SDS011;53901;51.466;-2.588;2023-11-18T01:33:29;1.63;;;0.52;;
66970;SDS011;53901;51.466;-2.588;2023-11-18T01:35:54;0.60;;;0.50;;
66970;SDS011;53901;51.466;-2.588;2023-11-18T01:38:20;3.70;;;0.70;;
66970;SDS011;53901;51.466;-2.588;2023-11-18T01:40:45;4.32;;;0.80;;
66970;SDS011;53901;51.466;-2.588;2023-11-18T01:43:11;5.65;;;0.85;;
66970;SDS011;53901;51.466;-2.588;2023-11-18T01:45:39;2.15;;;0.50;;
66970;SDS011;53901;51.466;-2.588;2023-11-18T01:48:05;1.52;;;0.40;;
66970;SDS011;53901;51.466;-2.588;2023-11-18T01:50:31;2.72;;;0.60;;
66970;SDS011;53901;51.466;-2.588;2023-11-18T01:52:57;3.45;;;0.75;;
66970;SDS011;53901;51.466;-2.588;2023-11-18T01:55:22;0.95;;;0.50;;
66970;SDS011;53901;51.466;-2.588;2023-11-18T01:57:48;1.00;;;0.50;;
66970;SDS011;53901;51.466;-2.588;2023-11-18T02:00:14;1.70;;;0.40;;
66970;SDS011;53901;51.466;-2.588;2023-11-18T02:02:42;2.30;;;0.65;;
66970;SDS011;53901;51.466;-2.588;2023-11-18T02:05:08;0.57;;;0.30;;
66970;SDS011;53901;51.466;-2.588;2023-11-18T02:07:37;1.08;;;0.50;;
66970;SDS011;53901;51.466;-2.588;2023-11-18T02:10:03;1.55;;;0.40;;
66970;SDS011;53901;51.466;-2.588;2023-11-18T02:12:37;0.40;;;0.30;;
66970;SDS011;53901;51.466;-2.588;2023-11-18T02:15:07;0.30;;;0.30;;
66970;SDS011;53901;51.466;-2.588;2023-11-18T02:17:36;0.47;;;0.40;;
66970;SDS011;53901;51.466;-2.588;2023-11-18T02:20:02;2.20;;;0.40;;
66970;SDS011;53901;51.466;-2.588;2023-11-18T02:22:31;1.15;;;0.32;;
66970;SDS011;53901;51.466;-2.588;2023-11-18T02:24:57;0.95;;;0.30;;
66970;SDS011;53901;51.466;-2.588;2023-11-18T02:27:27;0.30;;;0.30;;
66970;SDS011;53901;51.466;-2.588;2023-11-18T02:29:52;1.15;;;0.30;;
66970;SDS011;53901;51.466;-2.588;2023-11-18T02:32:20;2.15;;;0.70;;
66970;SDS011;53901;51.466;-2.588;2023-11-18T02:37:39;0.30;;;0.30;;
66970;SDS011;53901;51.466;-2.588;2023-11-18T02:40:07;1.10;;;0.38;;
66970;SDS011;53901;51.466;-2.588;2023-11-18T02:42:37;2.00;;;0.40;;
66970;SDS011;53901;51.466;-2.588;2023-11-18T02:45:03;0.40;;;0.40;;
66970;SDS011;53901;51.466;-2.588;2023-11-18T02:47:31;0.32;;;0.30;;
66970;SDS011;53901;51.466;-2.588;2023-11-18T02:49:57;0.30;;;0.30;;
66970;SDS011;53901;51.466;-2.588;2023-11-18T02:52:30;0.30;;;0.30;;
66970;SDS011;53901;51.466;-2.588;2023-11-18T02:54:56;0.57;;;0.30;;
66970;SDS011;53901;51.466;-2.588;2023-11-18T02:57:21;1.65;;;0.43;;
66970;SDS011;53901;51.466;-2.588;2023-11-18T02:59:46;1.25;;;0.28;;
66970;SDS011;53901;51.466;-2.588;2023-11-18T03:02:12;0.20;;;0.20;;
66970;SDS011;53901;51.466;-2.588;2023-11-18T03:04:37;0.20;;;0.20;;
66970;SDS011;53901;51.466;-2.588;2023-11-18T03:07:03;0.20;;;0.20;;
66970;SDS011;53901;51.466;-2.588;2023-11-18T03:09:28;0.38;;;0.20;;
66970;SDS011;53901;51.466;-2.588;2023-11-18T03:11:54;0.13;;;0.13;;
66970;SDS011;53901;51.466;-2.588;2023-11-18T03:14:20;0.20;;;0.20;;
66970;SDS011;53901;51.466;-2.588;2023-11-18T03:16:45;1.05;;;0.30;;
66970;SDS011;53901;51.466;-2.588;2023-11-18T03:19:11;1.52;;;0.32;;
66970;SDS011;53901;51.466;-2.588;2023-11-18T03:21:36;0.25;;;0.20;;
66970;SDS011;53901;51.466;-2.588;2023-11-18T03:24:02;0.47;;;0.30;;
66970;SDS011;53901;51.466;-2.588;2023-11-18T03:26:30;0.35;;;0.35;;
66970;SDS011;53901;51.466;-2.588;2023-11-18T03:28:57;0.52;;;0.28;;
66970;SDS011;53901;51.466;-2.588;2023-11-18T03:31:22;0.80;;;0.40;;
66970;SDS011;53901;51.466;-2.588;2023-11-18T03:33:48;1.80;;;0.30;;
66970;SDS011;53901;51.466;-2.588;2023-11-18T03:36:13;0.40;;;0.40;;
66970;SDS011;53901;51.466;-2.588;2023-11-18T03:38:39;0.50;;;0.35;;
66970;SDS011;53901;51.466;-2.588;2023-11-18T03:41:04;0.70;;;0.47;;
66970;SDS011;53901;51.466;-2.588;2023-11-18T03:43:30;0.50;;;0.25;;
66970;SDS011;53901;51.466;-2.588;2023-11-18T03:45:55;0.40;;;0.28;;
66970;SDS011;53901;51.466;-2.588;2023-11-18T03:48:22;0.52;;;0.30;;
66970;SDS011;53901;51.466;-2.588;2023-11-18T03:50:48;0.28;;;0.20;;
66970;SDS011;53901;51.466;-2.588;2023-11-18T03:53:13;0.65;;;0.35;;
66970;SDS011;53901;51.466;-2.588;2023-11-18T03:55:38;1.05;;;0.50;;
66970;SDS011;53901;51.466;-2.588;2023-11-18T03:58:04;0.85;;;0.40;;
66970;SDS011;53901;51.466;-2.588;2023-11-18T04:00:29;0.40;;;0.40;;
66970;SDS011;53901;51.466;-2.588;2023-11-18T04:02:56;0.57;;;0.40;;
66970;SDS011;53901;51.466;-2.588;2023-11-18T04:05:22;1.10;;;0.50;;
66970;SDS011;53901;51.466;-2.588;2023-11-18T04:07:47;1.10;;;0.40;;
66970;SDS011;53901;51.466;-2.588;2023-11-18T04:10:12;2.80;;;0.68;;
66970;SDS011;53901;51.466;-2.588;2023-11-18T04:12:38;1.52;;;0.50;;
66970;SDS011;53901;51.466;-2.588;2023-11-18T04:15:04;0.52;;;0.40;;
66970;SDS011;53901;51.466;-2.588;2023-11-18T04:17:30;0.75;;;0.30;;
66970;SDS011;53901;51.466;-2.588;2023-11-18T04:19:56;0.57;;;0.43;;
66970;SDS011;53901;51.466;-2.588;2023-11-18T04:22:21;0.63;;;0.30;;
66970;SDS011;53901;51.466;-2.588;2023-11-18T04:24:47;1.48;;;0.50;;
66970;SDS011;53901;51.466;-2.588;2023-11-18T04:27:13;0.60;;;0.40;;
66970;SDS011;53901;51.466;-2.588;2023-11-18T04:29:38;0.50;;;0.30;;
66970;SDS011;53901;51.466;-2.588;2023-11-18T04:32:05;1.50;;;0.50;;
66970;SDS011;53901;51.466;-2.588;2023-11-18T04:34:34;1.10;;;0.40;;
66970;SDS011;53901;51.466;-2.588;2023-11-18T04:37:00;1.60;;;0.50;;
66970;SDS011;53901;51.466;-2.588;2023-11-18T04:39:26;0.93;;;0.50;;
66970;SDS011;53901;51.466;-2.588;2023-11-18T04:41:52;2.00;;;0.50;;
66970;SDS011;53901;51.466;-2.588;2023-11-18T04:44:18;0.60;;;0.40;;
66970;SDS011;53901;51.466;-2.588;2023-11-18T04:46:43;0.55;;;0.40;;
66970;SDS011;53901;51.466;-2.588;2023-11-18T04:49:09;2.10;;;0.35;;
66970;SDS011;53901;51.466;-2.588;2023-11-18T04:51:35;0.70;;;0.50;;
66970;SDS011;53901;51.466;-2.588;2023-11-18T04:54:00;1.45;;;0.50;;
66970;SDS011;53901;51.466;-2.588;2023-11-18T04:56:28;1.58;;;0.45;;
66970;SDS011;53901;51.466;-2.588;2023-11-18T04:58:53;1.35;;;0.55;;
66970;SDS011;53901;51.466;-2.588;2023-11-18T05:01:19;1.30;;;0.68;;
66970;SDS011;53901;51.466;-2.588;2023-11-18T05:03:44;2.47;;;0.60;;
66970;SDS011;53901;51.466;-2.588;2023-11-18T05:06:10;3.13;;;0.90;;
66970;SDS011;53901;51.466;-2.588;2023-11-18T05:08:35;1.30;;;0.60;;
66970;SDS011;53901;51.466;-2.588;2023-11-18T05:11:01;3.47;;;0.75;;
66970;SDS011;53901;51.466;-2.588;2023-11-18T05:13:26;4.68;;;0.82;;
66970;SDS011;53901;51.466;-2.588;2023-11-18T05:15:52;1.60;;;0.63;;
66970;SDS011;53901;51.466;-2.588;2023-11-18T05:18:19;4.60;;;0.95;;
66970;SDS011;53901;51.466;-2.588;2023-11-18T05:20:44;3.28;;;1.23;;
66970;SDS011;53901;51.466;-2.588;2023-11-18T05:23:10;2.25;;;0.85;;
66970;SDS011;53901;51.466;-2.588;2023-11-18T05:25:36;2.58;;;0.95;;
66970;SDS011;53901;51.466;-2.588;2023-11-18T05:28:02;3.47;;;1.00;;
66970;SDS011;53901;51.466;-2.588;2023-11-18T05:30:30;3.53;;;0.98;;
66970;SDS011;53901;51.466;-2.588;2023-11-18T05:32:56;2.90;;;1.15;;
66970;SDS011;53901;51.466;-2.588;2023-11-18T05:35:23;2.85;;;0.90;;
66970;SDS011;53901;51.466;-2.588;2023-11-18T05:37:53;4.13;;;1.10;;
66970;SDS011;53901;51.466;-2.588;2023-11-18T05:40:19;2.58;;;0.65;;
66970;SDS011;53901;51.466;-2.588;2023-11-18T05:42:45;1.55;;;0.63;;
66970;SDS011;53901;51.466;-2.588;2023-11-18T05:45:13;1.33;;;0.70;;
66970;SDS011;53901;51.466;-2.588;2023-11-18T05:47:53;3.08;;;0.75;;
66970;SDS011;53901;51.466;-2.588;2023-11-18T05:50:19;2.13;;;0.75;;
66970;SDS011;53901;51.466;-2.588;2023-11-18T05:52:44;3.45;;;0.68;;
66970;SDS011;53901;51.466;-2.588;2023-11-18T05:55:09;2.17;;;0.60;;
66970;SDS011;53901;51.466;-2.588;2023-11-18T05:57:35;1.90;;;0.52;;
66970;SDS011;53901;51.466;-2.588;2023-11-18T06:00:01;2.22;;;0.70;;
66970;SDS011;53901;51.466;-2.588;2023-11-18T06:02:26;8.55;;;0.98;;
66970;SDS011;53901;51.466;-2.588;2023-11-18T06:04:52;2.55;;;0.70;;
66970;SDS011;53901;51.466;-2.588;2023-11-18T06:07:17;1.65;;;0.82;;
66970;SDS011;53901;51.466;-2.588;2023-11-18T06:09:44;3.58;;;0.80;;
66970;SDS011;53901;51.466;-2.588;2023-11-18T06:12:10;3.30;;;1.13;;
66970;SDS011;53901;51.466;-2.588;2023-11-18T06:14:39;2.38;;;0.60;;
66970;SDS011;53901;51.466;-2.588;2023-11-18T06:17:06;3.17;;;0.70;;
66970;SDS011;53901;51.466;-2.588;2023-11-18T06:19:33;1.05;;;0.55;;
66970;SDS011;53901;51.466;-2.588;2023-11-18T06:21:59;2.50;;;0.70;;
66970;SDS011;53901;51.466;-2.588;2023-11-18T06:24:24;2.28;;;0.88;;
66970;SDS011;53901;51.466;-2.588;2023-11-18T06:26:50;1.33;;;0.50;;
66970;SDS011;53901;51.466;-2.588;2023-11-18T06:29:15;2.95;;;0.60;;
66970;SDS011;53901;51.466;-2.588;2023-11-18T06:31:41;3.97;;;0.60;;
66970;SDS011;53901;51.466;-2.588;2023-11-18T06:34:07;1.55;;;0.70;;
66970;SDS011;53901;51.466;-2.588;2023-11-18T06:36:33;2.38;;;0.60;;
66970;SDS011;53901;51.466;-2.588;2023-11-18T06:38:58;1.92;;;0.60;;
66970;SDS011;53901;51.466;-2.588;2023-11-18T06:41:24;1.40;;;0.40;;
66970;SDS011;53901;51.466;-2.588;2023-11-18T06:43:58;0.95;;;0.50;;
66970;SDS011;53901;51.466;-2.588;2023-11-18T06:46:30;1.27;;;0.40;;
66970;SDS011;53901;51.466;-2.588;2023-11-18T06:48:59;3.40;;;0.60;;
66970;SDS011;53901;51.466;-2.588;2023-11-18T06:51:30;1.27;;;0.55;;
66970;SDS011;53901;51.466;-2.588;2023-11-18T06:53:57;1.45;;;0.60;;
66970;SDS011;53901;51.466;-2.588;2023-11-18T06:56:23;2.67;;;0.60;;
66970;SDS011;53901;51.466;-2.588;2023-11-18T06:58:49;2.60;;;1.00;;
66970;SDS011;53901;51.466;-2.588;2023-11-18T07:01:15;1.55;;;0.50;;
66970;SDS011;53901;51.466;-2.588;2023-11-18T07:03:41;1.75;;;0.55;;
66970;SDS011;53901;51.466;-2.588;2023-11-18T07:06:07;1.75;;;0.60;;
66970;SDS011;53901;51.466;-2.588;2023-11-18T07:08:34;1.75;;;0.57;;
66970;SDS011;53901;51.466;-2.588;2023-11-18T07:11:02;3.42;;;0.80;;
66970;SDS011;53901;51.466;-2.588;2023-11-18T07:13:28;1.27;;;0.52;;
66970;SDS011;53901;51.466;-2.588;2023-11-18T07:15:54;0.82;;;0.57;;
66970;SDS011;53901;51.466;-2.588;2023-11-18T07:18:21;2.17;;;0.70;;
66970;SDS011;53901;51.466;-2.588;2023-11-18T07:20:50;2.13;;;0.65;;
66970;SDS011;53901;51.466;-2.588;2023-11-18T07:23:17;1.38;;;0.60;;
66970;SDS011;53901;51.466;-2.588;2023-11-18T07:25:44;2.70;;;0.80;;
66970;SDS011;53901;51.466;-2.588;2023-11-18T07:28:10;2.67;;;0.70;;
66970;SDS011;53901;51.466;-2.588;2023-11-18T07:30:36;3.08;;;1.20;;
66970;SDS011;53901;51.466;-2.588;2023-11-18T07:33:02;1.77;;;0.80;;
66970;SDS011;53901;51.466;-2.588;2023-11-18T07:35:28;3.75;;;0.82;;
66970;SDS011;53901;51.466;-2.588;2023-11-18T07:37:54;1.80;;;0.90;;
66970;SDS011;53901;51.466;-2.588;2023-11-18T07:40:21;4.32;;;1.40;;
66970;SDS011;53901;51.466;-2.588;2023-11-18T07:42:53;3.38;;;0.70;;
66970;SDS011;53901;51.466;-2.588;2023-11-18T07:45:18;4.65;;;1.00;;
66970;SDS011;53901;51.466;-2.588;2023-11-18T07:47:44;2.13;;;0.90;;
66970;SDS011;53901;51.466;-2.588;2023-11-18T07:50:10;2.40;;;0.88;;
66970;SDS011;53901;51.466;-2.588;2023-11-18T07:52:38;1.70;;;0.80;;
66970;SDS011;53901;51.466;-2.588;2023-11-18T07:55:04;1.92;;;0.85;;
66970;SDS011;53901;51.466;-2.588;2023-11-18T07:57:30;3.83;;;1.10;;
66970;SDS011;53901;51.466;-2.588;2023-11-18T08:00:01;1.55;;;0.80;;
66970;SDS011;53901;51.466;-2.588;2023-11-18T08:02:30;2.90;;;1.10;;
66970;SDS011;53901;51.466;-2.588;2023-11-18T08:04:56;4.22;;;0.68;;
66970;SDS011;53901;51.466;-2.588;2023-11-18T08:07:21;2.05;;;0.77;;
66970;SDS011;53901;51.466;-2.588;2023-11-18T08:09:47;2.42;;;1.00;;
66970;SDS011;53901;51.466;-2.588;2023-11-18T08:12:13;2.08;;;1.23;;
66970;SDS011;53901;51.466;-2.588;2023-11-18T08:14:38;2.70;;;1.38;;
66970;SDS011;53901;51.466;-2.588;2023-11-18T08:17:04;2.88;;;1.30;;
66970;SDS011;53901;51.466;-2.588;2023-11-18T08:19:30;3.60;;;1.95;;
66970;SDS011;53901;51.466;-2.588;2023-11-18T08:21:56;4.90;;;1.40;;
66970;SDS011;53901;51.466;-2.588;2023-11-18T08:24:21;3.47;;;1.15;;
66970;SDS011;53901;51.466;-2.588;2023-11-18T08:26:48;3.85;;;0.90;;
66970;SDS011;53901;51.466;-2.588;2023-11-18T08:29:14;1.65;;;0.80;;
66970;SDS011;53901;51.466;-2.588;2023-11-18T08:31:41;1.88;;;1.00;;
66970;SDS011;53901;51.466;-2.588;2023-11-18T08:34:06;1.23;;;0.63;;
66970;SDS011;53901;51.466;-2.588;2023-11-18T08:36:32;3.35;;;1.23;;
66970;SDS011;53901;51.466;-2.588;2023-11-18T08:38:59;3.35;;;1.83;;
66970;SDS011;53901;51.466;-2.588;2023-11-18T08:41:24;1.85;;;0.82;;
66970;SDS011;53901;51.466;-2.588;2023-11-18T08:43:50;2.63;;;1.15;;
66970;SDS011;53901;51.466;-2.588;2023-11-18T08:46:15;1.73;;;0.63;;
66970;SDS011;53901;51.466;-2.588;2023-11-18T08:48:41;1.70;;;0.52;;
66970;SDS011;53901;51.466;-2.588;2023-11-18T08:51:07;1.63;;;0.52;;
66970;SDS011;53901;51.466;-2.588;2023-11-18T08:53:33;1.17;;;0.40;;
66970;SDS011;53901;51.466;-2.588;2023-11-18T08:56:07;0.95;;;0.50;;
66970;SDS011;53901;51.466;-2.588;2023-11-18T08:58:38;1.27;;;0.70;;
66970;SDS011;53901;51.466;-2.588;2023-11-18T09:01:05;1.35;;;0.70;;
66970;SDS011;53901;51.466;-2.588;2023-11-18T09:03:38;2.22;;;0.50;;
66970;SDS011;53901;51.466;-2.588;2023-11-18T09:06:08;2.65;;;0.70;;
66970;SDS011;53901;51.466;-2.588;2023-11-18T09:08:47;1.60;;;0.82;;
66970;SDS011;53901;51.466;-2.588;2023-11-18T09:11:17;3.33;;;0.63;;
66970;SDS011;53901;51.466;-2.588;2023-11-18T09:13:43;0.95;;;0.52;;
66970;SDS011;53901;51.466;-2.588;2023-11-18T09:16:14;1.52;;;0.45;;
66970;SDS011;53901;51.466;-2.588;2023-11-18T09:18:41;1.95;;;0.40;;
66970;SDS011;53901;51.466;-2.588;2023-11-18T09:21:10;0.50;;;0.50;;
66970;SDS011;53901;51.466;-2.588;2023-11-18T09:23:44;0.65;;;0.40;;
66970;SDS011;53901;51.466;-2.588;2023-11-18T09:26:12;1.75;;;0.50;;
66970;SDS011;53901;51.466;-2.588;2023-11-18T09:28:39;1.83;;;0.95;;
66970;SDS011;53901;51.466;-2.588;2023-11-18T09:31:05;0.73;;;0.30;;
66970;SDS011;53901;51.466;-2.588;2023-11-18T09:33:31;1.42;;;0.60;;
66970;SDS011;53901;51.466;-2.588;2023-11-18T09:36:01;1.25;;;0.50;;
66970;SDS011;53901;51.466;-2.588;2023-11-18T09:38:29;0.55;;;0.28;;
66970;SDS011;53901;51.466;-2.588;2023-11-18T09:40:58;1.35;;;0.30;;
66970;SDS011;53901;51.466;-2.588;2023-11-18T09:43:28;0.38;;;0.30;;
66970;SDS011;53901;51.466;-2.588;2023-11-18T09:45:58;0.40;;;0.22;;
66970;SDS011;53901;51.466;-2.588;2023-11-18T09:48:37;0.70;;;0.30;;
66970;SDS011;53901;51.466;-2.588;2023-11-18T09:51:15;2.85;;;0.60;;
66970;SDS011;53901;51.466;-2.588;2023-11-18T09:53:55;2.15;;;0.50;;
66970;SDS011;53901;51.466;-2.588;2023-11-18T09:56:41;2.17;;;0.60;;
66970;SDS011;53901;51.466;-2.588;2023-11-18T09:59:46;3.70;;;0.70;;
66970;SDS011;53901;51.466;-2.588;2023-11-18T10:02:22;2.60;;;0.60;;
66970;SDS011;53901;51.466;-2.588;2023-11-18T10:04:48;3.53;;;0.80;;
66970;SDS011;53901;51.466;-2.588;2023-11-18T10:07:22;4.32;;;0.63;;
66970;SDS011;53901;51.466;-2.588;2023-11-18T10:09:51;3.75;;;0.70;;
66970;SDS011;53901;51.466;-2.588;2023-11-18T10:12:22;3.92;;;0.57;;
66970;SDS011;53901;51.466;-2.588;2023-11-18T10:14:48;5.00;;;0.60;;
66970;SDS011;53901;51.466;-2.588;2023-11-18T10:17:17;1.50;;;0.52;;
66970;SDS011;53901;51.466;-2.588;2023-11-18T10:19:56;3.28;;;0.60;;
66970;SDS011;53901;51.466;-2.588;2023-11-18T10:22:28;4.95;;;0.95;;
66970;SDS011;53901;51.466;-2.588;2023-11-18T10:24:55;4.35;;;0.70;;
66970;SDS011;53901;51.466;-2.588;2023-11-18T10:27:22;5.63;;;0.90;;
66970;SDS011;53901;51.466;-2.588;2023-11-18T10:29:55;5.47;;;0.95;;
66970;SDS011;53901;51.466;-2.588;2023-11-18T10:32:31;3.55;;;0.90;;
66970;SDS011;53901;51.466;-2.588;2023-11-18T10:35:00;4.93;;;0.82;;
66970;SDS011;53901;51.466;-2.588;2023-11-18T10:37:26;3.38;;;0.80;;
66970;SDS011;53901;51.466;-2.588;2023-11-18T10:39:58;3.67;;;0.85;;
66970;SDS011;53901;51.466;-2.588;2023-11-18T10:42:33;4.20;;;1.20;;
66970;SDS011;53901;51.466;-2.588;2023-11-18T10:45:05;5.13;;;0.80;;
66970;SDS011;53901;51.466;-2.588;2023-11-18T10:47:34;4.53;;;1.27;;
66970;SDS011;53901;51.466;-2.588;2023-11-18T10:50:09;2.85;;;0.95;;
66970;SDS011;53901;51.466;-2.588;2023-11-18T10:52:34;3.13;;;0.90;;
66970;SDS011;53901;51.466;-2.588;2023-11-18T10:55:02;7.97;;;1.25;;
66970;SDS011;53901;51.466;-2.588;2023-11-18T10:57:36;4.07;;;1.10;;
66970;SDS011;53901;51.466;-2.588;2023-11-18T11:00:06;5.43;;;0.93;;
66970;SDS011;53901;51.466;-2.588;2023-11-18T11:02:38;4.13;;;0.90;;
66970;SDS011;53901;51.466;-2.588;2023-11-18T11:05:04;3.03;;;0.77;;
66970;SDS011;53901;51.466;-2.588;2023-11-18T11:07:32;5.93;;;1.20;;
66970;SDS011;53901;51.466;-2.588;2023-11-18T11:10:06;4.88;;;1.10;;
66970;SDS011;53901;51.466;-2.588;2023-11-18T11:12:33;4.88;;;1.10;;
66970;SDS011;53901;51.466;-2.588;2023-11-18T11:17:32;4.40;;;1.02;;
66970;SDS011;53901;51.466;-2.588;2023-11-18T11:20:05;3.83;;;1.08;;
66970;SDS011;53901;51.466;-2.588;2023-11-18T11:22:46;7.40;;;1.40;;
66970;SDS011;53901;51.466;-2.588;2023-11-18T11:25:24;12.15;;;1.85;;
66970;SDS011;53901;51.466;-2.588;2023-11-18T11:28:19;3.72;;;1.23;;
66970;SDS011;53901;51.466;-2.588;2023-11-18T11:30:50;8.23;;;1.88;;
66970;SDS011;53901;51.466;-2.588;2023-11-18T11:33:31;13.10;;;1.67;;
66970;SDS011;53901;51.466;-2.588;2023-11-18T11:36:05;8.98;;;1.80;;
66970;SDS011;53901;51.466;-2.588;2023-11-18T11:38:36;8.00;;;1.60;;
66970;SDS011;53901;51.466;-2.588;2023-11-18T11:41:02;7.43;;;1.60;;
66970;SDS011;53901;51.466;-2.588;2023-11-18T11:43:30;9.15;;;1.88;;
66970;SDS011;53901;51.466;-2.588;2023-11-18T11:45:55;11.38;;;1.73;;
66970;SDS011;53901;51.466;-2.588;2023-11-18T11:48:21;9.93;;;2.03;;
66970;SDS011;53901;51.466;-2.588;2023-11-18T11:51:02;10.60;;;2.10;;
66970;SDS011;53901;51.466;-2.588;2023-11-18T11:56:44;12.80;;;2.35;;
66970;SDS011;53901;51.466;-2.588;2023-11-18T11:59:12;12.20;;;2.08;;
66970;SDS011;53901;51.466;-2.588;2023-11-18T12:01:41;12.48;;;2.08;;
66970;SDS011;53901;51.466;-2.588;2023-11-18T12:04:12;14.85;;;2.20;;
66970;SDS011;53901;51.466;-2.588;2023-11-18T12:06:46;9.77;;;2.15;;
66970;SDS011;53901;51.466;-2.588;2023-11-18T12:09:13;9.52;;;2.20;;
66970;SDS011;53901;51.466;-2.588;2023-11-18T12:11:44;16.23;;;2.55;;
66970;SDS011;53901;51.466;-2.588;2023-11-18T12:14:14;10.70;;;2.45;;
66970;SDS011;53901;51.466;-2.588;2023-11-18T12:17:05;9.10;;;2.03;;
66970;SDS011;53901;51.466;-2.588;2023-11-18T12:19:57;10.35;;;1.75;;
66970;SDS011;53901;51.466;-2.588;2023-11-18T12:22:32;14.07;;;2.33;;
66970;SDS011;53901;51.466;-2.588;2023-11-18T12:25:39;13.10;;;2.25;;
66970;SDS011;53901;51.466;-2.588;2023-11-18T12:28:15;9.07;;;2.00;;
66970;SDS011;53901;51.466;-2.588;2023-11-18T12:30:44;7.43;;;2.00;;
66970;SDS011;53901;51.466;-2.588;2023-11-18T12:33:26;9.15;;;2.03;;
66970;SDS011;53901;51.466;-2.588;2023-11-18T12:42:02;11.00;;;1.80;;
66970;SDS011;53901;51.466;-2.588;2023-11-18T12:47:18;9.88;;;2.45;;
66970;SDS011;53901;51.466;-2.588;2023-11-18T12:49:47;11.20;;;2.25;;
66970;SDS011;53901;51.466;-2.588;2023-11-18T12:52:19;15.82;;;2.40;;
66970;SDS011;53901;51.466;-2.588;2023-11-18T12:54:46;14.27;;;2.15;;
66970;SDS011;53901;51.466;-2.588;2023-11-18T12:57:15;12.55;;;2.72;;
66970;SDS011;53901;51.466;-2.588;2023-11-18T12:59:42;14.95;;;2.75;;
66970;SDS011;53901;51.466;-2.588;2023-11-18T13:02:10;13.90;;;2.78;;
66970;SDS011;53901;51.466;-2.588;2023-11-18T13:04:43;20.42;;;2.95;;
66970;SDS011;53901;51.466;-2.588;2023-11-18T13:07:12;16.13;;;2.33;;
66970;SDS011;53901;51.466;-2.588;2023-11-18T13:09:47;15.73;;;2.55;;
66970;SDS011;53901;51.466;-2.588;2023-11-18T13:12:16;12.48;;;2.58;;
66970;SDS011;53901;51.466;-2.588;2023-11-18T13:14:49;12.35;;;2.70;;
66970;SDS011;53901;51.466;-2.588;2023-11-18T13:17:15;16.83;;;3.03;;
66970;SDS011;53901;51.466;-2.588;2023-11-18T13:19:41;10.52;;;2.25;;
66970;SDS011;53901;51.466;-2.588;2023-11-18T13:22:11;20.92;;;3.00;;
66970;SDS011;53901;51.466;-2.588;2023-11-18T13:24:38;19.52;;;2.75;;
66970;SDS011;53901;51.466;-2.588;2023-11-18T13:27:05;12.90;;;2.83;;
66970;SDS011;53901;51.466;-2.588;2023-11-18T13:29:32;11.38;;;2.70;;
66970;SDS011;53901;51.466;-2.588;2023-11-18T13:31:59;12.95;;;2.60;;
66970;SDS011;53901;51.466;-2.588;2023-11-18T13:34:29;17.65;;;2.78;;
66970;SDS011;53901;51.466;-2.588;2023-11-18T13:37:07;16.20;;;2.85;;
66970;SDS011;53901;51.466;-2.588;2023-11-18T13:39:34;21.25;;;3.53;;
66970;SDS011;53901;51.466;-2.588;2023-11-18T13:42:17;15.07;;;2.70;;
66970;SDS011;53901;51.466;-2.588;2023-11-18T13:44:47;19.70;;;3.17;;
66970;SDS011;53901;51.466;-2.588;2023-11-18T13:47:13;16.00;;;2.80;;
66970;SDS011;53901;51.466;-2.588;2023-11-18T13:49:39;21.13;;;2.95;;
66970;SDS011;53901;51.466;-2.588;2023-11-18T13:52:09;16.45;;;2.95;;
66970;SDS011;53901;51.466;-2.588;2023-11-18T13:54:39;17.45;;;3.47;;
66970;SDS011;53901;51.466;-2.588;2023-11-18T13:57:10;19.05;;;3.08;;
66970;SDS011;53901;51.466;-2.588;2023-11-18T13:59:37;16.80;;;3.60;;
66970;SDS011;53901;51.466;-2.588;2023-11-18T14:02:03;15.25;;;2.78;;
66970;SDS011;53901;51.466;-2.588;2023-11-18T14:04:29;18.60;;;3.20;;
66970;SDS011;53901;51.466;-2.588;2023-11-18T14:06:57;15.07;;;2.80;;
66970;SDS011;53901;51.466;-2.588;2023-11-18T14:09:23;19.75;;;2.75;;
66970;SDS011;53901;51.466;-2.588;2023-11-18T14:11:52;16.15;;;3.13;;
66970;SDS011;53901;51.466;-2.588;2023-11-18T14:14:20;18.90;;;3.72;;
66970;SDS011;53901;51.466;-2.588;2023-11-18T14:16:46;13.63;;;2.60;;
66970;SDS011;53901;51.466;-2.588;2023-11-18T14:19:11;19.25;;;3.28;;
66970;SDS011;53901;51.466;-2.588;2023-11-18T14:21:38;16.30;;;2.83;;
66970;SDS011;53901;51.466;-2.588;2023-11-18T14:24:05;17.40;;;2.97;;
66970;SDS011;53901;51.466;-2.588;2023-11-18T14:26:33;14.15;;;2.60;;
66970;SDS011;53901;51.466;-2.588;2023-11-18T14:28:58;17.13;;;3.30;;
66970;SDS011;53901;51.466;-2.588;2023-11-18T14:31:25;23.27;;;3.67;;
66970;SDS011;53901;51.466;-2.588;2023-11-18T14:33:51;15.80;;;2.90;;
66970;SDS011;53901;51.466;-2.588;2023-11-18T14:36:17;18.50;;;3.22;;
66970;SDS011;53901;51.466;-2.588;2023-11-18T14:38:44;25.17;;;4.13;;
66970;SDS011;53901;51.466;-2.588;2023-11-18T14:41:09;20.15;;;3.13;;
66970;SDS011;53901;51.466;-2.588;2023-11-18T14:43:35;21.88;;;4.15;;
66970;SDS011;53901;51.466;-2.588;2023-11-18T14:46:01;24.40;;;3.15;;
66970;SDS011;53901;51.466;-2.588;2023-11-18T14:48:26;16.88;;;2.95;;
66970;SDS011;53901;51.466;-2.588;2023-11-18T14:50:52;21.60;;;3.15;;
66970;SDS011;53901;51.466;-2.588;2023-11-18T14:53:17;23.25;;;3.45;;